createdAt,value
2018-08-16T00:04:11.990Z,27.52
2018-08-16T00:14:14.502Z,27.51
2018-08-16T00:24:16.901Z,27.53
2018-08-16T00:34:19.454Z,27.47
2018-08-16T00:44:21.907Z,27.44
2018-08-16T00:54:24.461Z,27.47
2018-08-16T01:04:27.600Z,27.43
2018-08-16T01:14:30.145Z,27.41
2018-08-16T01:24:32.773Z,27.41
2018-08-16T01:34:35.137Z,27.36
2018-08-16T01:44:37.717Z,27.35
2018-08-16T01:54:40.958Z,27.33
2018-08-16T02:04:43.398Z,27.28
2018-08-16T02:14:45.933Z,27.30
2018-08-16T02:24:48.532Z,27.29
2018-08-16T02:34:51.010Z,27.28
2018-08-16T02:44:54.136Z,27.24
2018-08-16T02:54:56.637Z,27.25
2018-08-16T03:04:59.142Z,27.25
2018-08-16T03:15:01.670Z,27.22
2018-08-16T03:25:04.195Z,27.23
2018-08-16T03:35:07.146Z,27.26
2018-08-16T03:45:09.643Z,27.25
2018-08-16T03:55:12.191Z,27.29
2018-08-16T04:05:14.730Z,27.28
2018-08-16T04:15:17.254Z,27.30
2018-08-16T04:25:19.759Z,27.23
2018-08-16T04:35:22.343Z,27.25
2018-08-16T04:45:24.862Z,27.24
2018-08-16T04:55:27.383Z,27.21
2018-08-16T05:05:31.268Z,27.14
2018-08-16T05:15:33.853Z,27.10
2018-08-16T05:25:36.446Z,27.11
2018-08-16T05:35:53.935Z,27.10
2018-08-16T05:45:56.393Z,27.09
2018-08-16T05:55:58.859Z,27.06
2018-08-16T06:06:01.440Z,27.08
2018-08-16T06:16:04.590Z,26.56
2018-08-16T06:26:07.047Z,26.29
2018-08-16T06:36:09.636Z,26.21
2018-08-16T06:46:13.211Z,26.07
2018-08-16T06:56:15.663Z,25.60
2018-08-16T07:06:18.261Z,25.69
2018-08-16T07:16:20.697Z,25.96
2018-08-16T07:26:23.257Z,26.07
2018-08-16T07:36:25.784Z,26.43
2018-08-16T07:46:28.296Z,26.73
2018-08-16T07:56:30.776Z,27.12
2018-08-16T08:06:33.331Z,27.05
2018-08-16T08:16:36.050Z,27.08
2018-08-16T08:26:38.595Z,27.32
2018-08-16T08:36:47.158Z,27.42
2018-08-16T08:46:50.788Z,27.55
2018-08-16T08:56:58.909Z,27.65
2018-08-16T09:07:01.526Z,27.76
2018-08-16T09:17:03.885Z,27.50
2018-08-16T09:27:06.515Z,27.59
2018-08-16T09:37:09.027Z,27.77
2018-08-16T09:47:17.116Z,27.78
2018-08-16T09:57:19.701Z,28.23
2018-08-16T10:07:22.154Z,28.07
2018-08-16T10:17:24.631Z,27.88
2018-08-16T10:27:27.200Z,28.05
2018-08-16T10:37:29.730Z,28.04
2018-08-16T10:47:32.284Z,28.27
2018-08-16T10:57:34.923Z,27.91
2018-08-16T11:07:37.895Z,28.11
2018-08-16T11:17:40.592Z,28.11
2018-08-16T11:27:43.080Z,28.18
2018-08-16T11:37:45.629Z,28.53
2018-08-16T11:47:48.225Z,28.55
2018-08-16T11:57:55.626Z,28.10
2018-08-16T12:07:58.179Z,28.31
2018-08-16T12:18:00.768Z,28.40
2018-08-16T12:28:03.193Z,28.39
2018-08-16T12:38:05.781Z,28.33
2018-08-16T12:48:08.700Z,28.21
2018-08-16T12:58:11.261Z,28.35
2018-08-16T13:08:13.794Z,28.35
2018-08-16T13:18:16.245Z,28.05
2018-08-16T13:28:18.697Z,28.15
2018-08-16T13:38:21.261Z,28.67
2018-08-16T13:48:23.795Z,28.35
2018-08-16T13:58:26.284Z,28.34
2018-08-16T14:08:28.808Z,28.22
2018-08-16T14:18:31.481Z,28.75
2018-08-16T14:28:33.868Z,28.66
2018-08-16T14:38:36.397Z,28.70
2018-08-16T14:48:39.001Z,28.77
2018-08-16T14:58:41.457Z,28.71
2018-08-16T15:08:44.040Z,28.87
2018-08-16T15:18:46.607Z,28.66
2018-08-16T15:28:49.057Z,28.75
2018-08-16T15:38:51.697Z,28.61
2018-08-16T15:48:54.164Z,28.92
2018-08-16T15:58:56.810Z,28.78
2018-08-16T16:08:59.412Z,28.83
2018-08-16T16:19:01.850Z,28.97
2018-08-16T16:29:04.343Z,28.75
2018-08-16T16:39:08.577Z,28.69
2018-08-16T16:49:11.065Z,28.73
2018-08-16T16:59:13.628Z,28.83
2018-08-16T17:09:16.610Z,28.85
2018-08-16T17:19:29.604Z,28.59
2018-08-16T17:29:32.000Z,28.54
2018-08-16T17:39:34.467Z,28.57
2018-08-16T17:49:37.042Z,28.47
2018-08-16T17:59:39.645Z,28.60
2018-08-16T18:09:42.536Z,28.46
2018-08-16T18:19:45.301Z,28.31
2018-08-16T18:29:48.081Z,28.09
2018-08-16T18:39:51.419Z,28.02
2018-08-16T18:49:54.296Z,27.86
2018-08-16T18:59:56.919Z,27.63
2018-08-16T19:09:59.380Z,27.60
2018-08-16T19:20:01.930Z,27.42
2018-08-16T19:30:05.058Z,27.28
2018-08-16T19:40:07.939Z,27.17
2018-08-16T19:50:11.583Z,27.01
2018-08-16T20:00:14.607Z,27.16
2018-08-16T20:10:17.512Z,27.60
2018-08-16T20:20:19.914Z,27.82
2018-08-16T20:30:22.524Z,27.99
2018-08-16T20:40:25.416Z,27.76
2018-08-16T20:50:28.037Z,27.73
2018-08-16T21:00:32.397Z,27.75
2018-08-16T21:10:34.761Z,27.75
2018-08-16T21:20:37.763Z,27.78
2018-08-16T21:30:40.827Z,27.76
2018-08-16T21:40:43.241Z,27.76
2018-08-16T21:50:45.673Z,27.78
2018-08-16T22:00:52.724Z,27.76
2018-08-16T22:10:55.667Z,27.76
2018-08-16T22:21:00.437Z,27.78
2018-08-16T22:31:03.937Z,27.75
2018-08-16T22:41:06.493Z,27.72
2018-08-16T22:51:09.387Z,27.73
2018-08-16T23:01:11.760Z,27.72
2018-08-16T23:11:14.277Z,27.74
2018-08-16T23:21:17.633Z,27.74
2018-08-16T23:31:20.161Z,27.70
2018-08-16T23:41:23.201Z,27.69
2018-08-16T23:51:25.944Z,27.67
